sensor_id;sensor_type;location;lat;lon;timestamp;temperature;humidity
27795;DHT22;15176;50.844;4.412;2022-09-24T00:00:45;16.70;99.90
27795;DHT22;15176;50.844;4.412;2022-09-24T00:03:17;16.90;99.90
27795;DHT22;15176;50.844;4.412;2022-09-24T00:05:44;16.80;99.90
27795;DHT22;15176;50.844;4.412;2022-09-24T00:08:10;16.80;99.90
27795;DHT22;15176;50.844;4.412;2022-09-24T00:10:40;16.80;99.90
27795;DHT22;15176;50.844;4.412;2022-09-24T00:13:07;16.60;99.90
27795;DHT22;15176;50.844;4.412;2022-09-24T00:15:42;16.40;99.90
27795;DHT22;15176;50.844;4.412;2022-09-24T00:18:08;16.30;99.90
27795;DHT22;15176;50.844;4.412;2022-09-24T00:20:36;16.30;99.90
27795;DHT22;15176;50.844;4.412;2022-09-24T00:23:03;16.40;99.90
27795;DHT22;15176;50.844;4.412;2022-09-24T00:25:29;16.30;99.90
27795;DHT22;15176;50.844;4.412;2022-09-24T00:28:14;16.30;99.90
27795;DHT22;15176;50.844;4.412;2022-09-24T00:30:41;16.70;99.90
27795;DHT22;15176;50.844;4.412;2022-09-24T00:33:08;16.60;99.90
27795;DHT22;15176;50.844;4.412;2022-09-24T00:35:35;16.60;99.90
27795;DHT22;15176;50.844;4.412;2022-09-24T00:38:01;16.90;99.90
27795;DHT22;15176;50.844;4.412;2022-09-24T00:40:28;16.90;99.90
27795;DHT22;15176;50.844;4.412;2022-09-24T00:42:54;16.70;99.90
27795;DHT22;15176;50.844;4.412;2022-09-24T00:45:20;17.00;99.90
27795;DHT22;15176;50.844;4.412;2022-09-24T00:47:46;16.70;99.90
27795;DHT22;15176;50.844;4.412;2022-09-24T00:52:44;16.10;99.90
27795;DHT22;15176;50.844;4.412;2022-09-24T00:55:11;16.00;99.90
27795;DHT22;15176;50.844;4.412;2022-09-24T00:57:38;16.00;99.90
27795;DHT22;15176;50.844;4.412;2022-09-24T01:00:05;16.30;99.90
27795;DHT22;15176;50.844;4.412;2022-09-24T01:02:35;16.10;99.90
27795;DHT22;15176;50.844;4.412;2022-09-24T01:05:02;16.60;99.90
27795;DHT22;15176;50.844;4.412;2022-09-24T01:07:28;16.80;99.90
27795;DHT22;15176;50.844;4.412;2022-09-24T01:09:54;16.80;99.90
27795;DHT22;15176;50.844;4.412;2022-09-24T01:12:41;16.40;99.90
27795;DHT22;15176;50.844;4.412;2022-09-24T01:15:37;16.70;99.90
27795;DHT22;15176;50.844;4.412;2022-09-24T01:18:32;16.10;99.90
27795;DHT22;15176;50.844;4.412;2022-09-24T01:26:59;16.10;99.90
27795;DHT22;15176;50.844;4.412;2022-09-24T01:35:42;16.10;99.90
27795;DHT22;15176;50.844;4.412;2022-09-24T01:38:02;16.20;99.90
27795;DHT22;15176;50.844;4.412;2022-09-24T01:40:29;16.40;99.90
27795;DHT22;15176;50.844;4.412;2022-09-24T01:42:56;16.20;99.90
27795;DHT22;15176;50.844;4.412;2022-09-24T01:45:25;16.40;99.90
27795;DHT22;15176;50.844;4.412;2022-09-24T01:47:53;16.60;99.90
27795;DHT22;15176;50.844;4.412;2022-09-24T01:50:18;16.80;99.90
27795;DHT22;15176;50.844;4.412;2022-09-24T01:52:55;16.70;99.90
27795;DHT22;15176;50.844;4.412;2022-09-24T01:55:24;16.30;99.90
27795;DHT22;15176;50.844;4.412;2022-09-24T01:57:56;16.40;99.90
27795;DHT22;15176;50.844;4.412;2022-09-24T02:00:24;16.30;99.90
27795;DHT22;15176;50.844;4.412;2022-09-24T02:02:58;16.20;99.90
27795;DHT22;15176;50.844;4.412;2022-09-24T02:05:33;16.10;99.90
27795;DHT22;15176;50.844;4.412;2022-09-24T02:08:20;16.40;99.90
27795;DHT22;15176;50.844;4.412;2022-09-24T02:13:16;16.40;99.90
27795;DHT22;15176;50.844;4.412;2022-09-24T02:15:48;16.40;99.90
27795;DHT22;15176;50.844;4.412;2022-09-24T02:18:17;16.40;99.90
27795;DHT22;15176;50.844;4.412;2022-09-24T02:20:45;16.40;99.90
27795;DHT22;15176;50.844;4.412;2022-09-24T02:23:13;16.50;99.90
27795;DHT22;15176;50.844;4.412;2022-09-24T02:25:59;16.40;99.90
27795;DHT22;15176;50.844;4.412;2022-09-24T02:28:29;16.40;99.90
27795;DHT22;15176;50.844;4.412;2022-09-24T02:31:07;16.30;99.90
27795;DHT22;15176;50.844;4.412;2022-09-24T02:33:35;16.30;99.90
27795;DHT22;15176;50.844;4.412;2022-09-24T02:36:22;16.30;99.90
27795;DHT22;15176;50.844;4.412;2022-09-24T02:38:50;16.40;99.90
27795;DHT22;15176;50.844;4.412;2022-09-24T02:41:16;16.70;99.90
27795;DHT22;15176;50.844;4.412;2022-09-24T02:43:42;16.70;99.90
27795;DHT22;15176;50.844;4.412;2022-09-24T02:46:08;16.40;99.90
27795;DHT22;15176;50.844;4.412;2022-09-24T02:48:38;16.30;99.90
27795;DHT22;15176;50.844;4.412;2022-09-24T02:51:04;16.30;99.90
27795;DHT22;15176;50.844;4.412;2022-09-24T02:53:31;16.40;99.90
27795;DHT22;15176;50.844;4.412;2022-09-24T02:55:57;16.30;99.90
27795;DHT22;15176;50.844;4.412;2022-09-24T02:58:24;16.30;99.90
27795;DHT22;15176;50.844;4.412;2022-09-24T03:00:50;16.60;99.90
27795;DHT22;15176;50.844;4.412;2022-09-24T03:03:16;16.20;99.90
27795;DHT22;15176;50.844;4.412;2022-09-24T03:05:41;16.40;99.90
27795;DHT22;15176;50.844;4.412;2022-09-24T03:08:07;16.40;99.90
27795;DHT22;15176;50.844;4.412;2022-09-24T03:10:33;16.40;99.90
27795;DHT22;15176;50.844;4.412;2022-09-24T03:12:58;16.30;99.90
27795;DHT22;15176;50.844;4.412;2022-09-24T03:15:24;16.20;99.90
27795;DHT22;15176;50.844;4.412;2022-09-24T03:17:50;16.40;99.90
27795;DHT22;15176;50.844;4.412;2022-09-24T03:20:16;15.90;99.90
27795;DHT22;15176;50.844;4.412;2022-09-24T03:22:41;16.20;99.90
27795;DHT22;15176;50.844;4.412;2022-09-24T03:25:08;16.50;99.90
27795;DHT22;15176;50.844;4.412;2022-09-24T03:27:35;16.80;99.90
27795;DHT22;15176;50.844;4.412;2022-09-24T03:30:01;16.90;99.90
27795;DHT22;15176;50.844;4.412;2022-09-24T03:32:46;17.00;99.90
27795;DHT22;15176;50.844;4.412;2022-09-24T03:35:12;17.20;99.90
27795;DHT22;15176;50.844;4.412;2022-09-24T03:37:40;17.10;99.90
27795;DHT22;15176;50.844;4.412;2022-09-24T03:40:08;16.90;99.90
27795;DHT22;15176;50.844;4.412;2022-09-24T03:42:34;16.80;99.90
27795;DHT22;15176;50.844;4.412;2022-09-24T03:45:00;16.30;99.90
27795;DHT22;15176;50.844;4.412;2022-09-24T03:47:25;16.30;99.90
27795;DHT22;15176;50.844;4.412;2022-09-24T03:49:51;16.40;99.90
27795;DHT22;15176;50.844;4.412;2022-09-24T03:52:18;16.40;99.90
27795;DHT22;15176;50.844;4.412;2022-09-24T03:54:43;16.50;99.90
27795;DHT22;15176;50.844;4.412;2022-09-24T03:57:09;16.60;99.90
27795;DHT22;15176;50.844;4.412;2022-09-24T03:59:42;16.50;99.90
27795;DHT22;15176;50.844;4.412;2022-09-24T04:02:08;16.50;99.90
27795;DHT22;15176;50.844;4.412;2022-09-24T04:04:34;16.70;99.90
27795;DHT22;15176;50.844;4.412;2022-09-24T04:06:59;16.60;99.90
27795;DHT22;15176;50.844;4.412;2022-09-24T04:09:25;16.70;99.90
27795;DHT22;15176;50.844;4.412;2022-09-24T04:11:51;16.60;99.90
27795;DHT22;15176;50.844;4.412;2022-09-24T04:14:17;16.60;99.90
27795;DHT22;15176;50.844;4.412;2022-09-24T04:16:43;16.40;99.90
27795;DHT22;15176;50.844;4.412;2022-09-24T04:19:10;16.30;99.90
27795;DHT22;15176;50.844;4.412;2022-09-24T04:21:36;16.60;99.90
27795;DHT22;15176;50.844;4.412;2022-09-24T04:24:02;16.50;99.90
27795;DHT22;15176;50.844;4.412;2022-09-24T04:26:28;16.60;99.90
27795;DHT22;15176;50.844;4.412;2022-09-24T04:28:54;16.60;99.90
27795;DHT22;15176;50.844;4.412;2022-09-24T04:31:19;16.60;99.90
27795;DHT22;15176;50.844;4.412;2022-09-24T04:33:45;16.80;99.90
27795;DHT22;15176;50.844;4.412;2022-09-24T04:36:11;16.70;99.90
27795;DHT22;15176;50.844;4.412;2022-09-24T04:38:37;16.70;99.90
27795;DHT22;15176;50.844;4.412;2022-09-24T04:41:06;16.50;99.90
27795;DHT22;15176;50.844;4.412;2022-09-24T04:43:33;16.60;99.90
27795;DHT22;15176;50.844;4.412;2022-09-24T04:45:59;16.30;99.90
27795;DHT22;15176;50.844;4.412;2022-09-24T04:48:26;16.30;99.90
27795;DHT22;15176;50.844;4.412;2022-09-24T04:50:51;16.60;99.90
27795;DHT22;15176;50.844;4.412;2022-09-24T04:53:17;16.30;99.90
27795;DHT22;15176;50.844;4.412;2022-09-24T04:55:43;16.40;99.90
27795;DHT22;15176;50.844;4.412;2022-09-24T04:58:09;16.70;99.90
27795;DHT22;15176;50.844;4.412;2022-09-24T05:00:34;16.90;99.90
27795;DHT22;15176;50.844;4.412;2022-09-24T05:03:01;16.30;99.90
27795;DHT22;15176;50.844;4.412;2022-09-24T05:05:33;16.40;99.90
27795;DHT22;15176;50.844;4.412;2022-09-24T05:07:59;16.50;99.90
27795;DHT22;15176;50.844;4.412;2022-09-24T05:10:26;16.50;99.90
27795;DHT22;15176;50.844;4.412;2022-09-24T05:12:52;16.20;99.90
27795;DHT22;15176;50.844;4.412;2022-09-24T05:15:19;16.10;99.90
27795;DHT22;15176;50.844;4.412;2022-09-24T05:17:45;16.10;99.90
27795;DHT22;15176;50.844;4.412;2022-09-24T05:20:11;16.10;99.90
27795;DHT22;15176;50.844;4.412;2022-09-24T05:22:40;16.10;99.90
27795;DHT22;15176;50.844;4.412;2022-09-24T05:25:06;16.20;99.90
27795;DHT22;15176;50.844;4.412;2022-09-24T05:27:32;16.10;99.90
27795;DHT22;15176;50.844;4.412;2022-09-24T05:29:57;16.00;99.90
27795;DHT22;15176;50.844;4.412;2022-09-24T05:32:25;16.10;99.90
27795;DHT22;15176;50.844;4.412;2022-09-24T05:34:51;16.10;99.90
27795;DHT22;15176;50.844;4.412;2022-09-24T05:37:18;16.30;99.90
27795;DHT22;15176;50.844;4.412;2022-09-24T05:39:43;16.40;99.90
27795;DHT22;15176;50.844;4.412;2022-09-24T05:42:10;16.60;99.90
27795;DHT22;15176;50.844;4.412;2022-09-24T05:44:38;16.70;99.90
27795;DHT22;15176;50.844;4.412;2022-09-24T05:47:04;16.70;99.90
27795;DHT22;15176;50.844;4.412;2022-09-24T05:49:29;16.70;99.90
27795;DHT22;15176;50.844;4.412;2022-09-24T05:51:56;16.90;99.90
27795;DHT22;15176;50.844;4.412;2022-09-24T05:54:22;17.00;99.90
27795;DHT22;15176;50.844;4.412;2022-09-24T05:56:48;16.60;99.90
27795;DHT22;15176;50.844;4.412;2022-09-24T05:59:14;16.60;99.90
27795;DHT22;15176;50.844;4.412;2022-09-24T06:01:39;16.60;99.90
27795;DHT22;15176;50.844;4.412;2022-09-24T06:04:05;16.60;99.90
27795;DHT22;15176;50.844;4.412;2022-09-24T06:06:31;16.80;99.90
27795;DHT22;15176;50.844;4.412;2022-09-24T06:08:57;16.80;99.90
27795;DHT22;15176;50.844;4.412;2022-09-24T06:11:23;16.70;99.90
27795;DHT22;15176;50.844;4.412;2022-09-24T06:13:49;16.50;99.90
27795;DHT22;15176;50.844;4.412;2022-09-24T06:16:16;16.60;99.90
27795;DHT22;15176;50.844;4.412;2022-09-24T06:18:42;16.70;99.90
27795;DHT22;15176;50.844;4.412;2022-09-24T06:21:15;16.80;99.90
27795;DHT22;15176;50.844;4.412;2022-09-24T06:23:44;16.90;99.90
27795;DHT22;15176;50.844;4.412;2022-09-24T06:26:11;16.40;99.90
27795;DHT22;15176;50.844;4.412;2022-09-24T06:28:37;16.30;99.90
27795;DHT22;15176;50.844;4.412;2022-09-24T06:31:04;16.30;99.90
27795;DHT22;15176;50.844;4.412;2022-09-24T06:33:30;16.30;99.90
27795;DHT22;15176;50.844;4.412;2022-09-24T06:36:00;16.30;99.90
27795;DHT22;15176;50.844;4.412;2022-09-24T06:38:26;16.20;99.90
27795;DHT22;15176;50.844;4.412;2022-09-24T06:41:01;16.20;99.90
27795;DHT22;15176;50.844;4.412;2022-09-24T06:43:28;16.30;99.90
27795;DHT22;15176;50.844;4.412;2022-09-24T06:45:55;16.10;99.90
27795;DHT22;15176;50.844;4.412;2022-09-24T06:48:21;16.20;99.90
27795;DHT22;15176;50.844;4.412;2022-09-24T06:50:47;15.90;99.90
27795;DHT22;15176;50.844;4.412;2022-09-24T06:53:13;15.90;99.90
27795;DHT22;15176;50.844;4.412;2022-09-24T06:55:38;15.90;99.90
27795;DHT22;15176;50.844;4.412;2022-09-24T06:58:09;16.20;99.90
27795;DHT22;15176;50.844;4.412;2022-09-24T07:00:36;16.50;99.90
27795;DHT22;15176;50.844;4.412;2022-09-24T07:03:03;16.50;99.90
27795;DHT22;15176;50.844;4.412;2022-09-24T07:05:29;16.60;99.90
27795;DHT22;15176;50.844;4.412;2022-09-24T07:07:55;16.10;99.90
27795;DHT22;15176;50.844;4.412;2022-09-24T07:10:20;16.10;99.90
27795;DHT22;15176;50.844;4.412;2022-09-24T07:12:48;15.90;99.90
27795;DHT22;15176;50.844;4.412;2022-09-24T07:15:14;16.00;99.90
27795;DHT22;15176;50.844;4.412;2022-09-24T07:17:40;16.00;99.90
27795;DHT22;15176;50.844;4.412;2022-09-24T07:20:06;15.90;99.90
27795;DHT22;15176;50.844;4.412;2022-09-24T07:22:36;16.00;99.90
27795;DHT22;15176;50.844;4.412;2022-09-24T07:25:06;15.90;99.90
27795;DHT22;15176;50.844;4.412;2022-09-24T07:27:32;16.00;99.90
27795;DHT22;15176;50.844;4.412;2022-09-24T07:29:57;15.90;99.90
27795;DHT22;15176;50.844;4.412;2022-09-24T07:32:23;15.70;99.90
27795;DHT22;15176;50.844;4.412;2022-09-24T07:34:49;15.50;99.90
27795;DHT22;15176;50.844;4.412;2022-09-24T07:37:15;15.50;99.90
27795;DHT22;15176;50.844;4.412;2022-09-24T07:39:40;15.40;99.90
27795;DHT22;15176;50.844;4.412;2022-09-24T07:42:06;15.40;99.90
27795;DHT22;15176;50.844;4.412;2022-09-24T07:44:32;15.20;99.90
27795;DHT22;15176;50.844;4.412;2022-09-24T07:46:57;15.40;99.90
27795;DHT22;15176;50.844;4.412;2022-09-24T07:49:23;15.50;99.90
27795;DHT22;15176;50.844;4.412;2022-09-24T07:51:49;15.90;99.90
27795;DHT22;15176;50.844;4.412;2022-09-24T07:54:15;16.00;99.90
27795;DHT22;15176;50.844;4.412;2022-09-24T07:56:41;15.90;99.90
27795;DHT22;15176;50.844;4.412;2022-09-24T07:59:07;16.10;99.90
27795;DHT22;15176;50.844;4.412;2022-09-24T08:01:35;16.10;99.90
27795;DHT22;15176;50.844;4.412;2022-09-24T08:04:02;16.40;99.90
27795;DHT22;15176;50.844;4.412;2022-09-24T08:06:29;16.20;99.90
27795;DHT22;15176;50.844;4.412;2022-09-24T08:08:57;16.00;99.90
27795;DHT22;15176;50.844;4.412;2022-09-24T08:11:23;16.30;99.90
27795;DHT22;15176;50.844;4.412;2022-09-24T08:13:50;16.20;99.90
27795;DHT22;15176;50.844;4.412;2022-09-24T08:16:16;16.30;99.90
27795;DHT22;15176;50.844;4.412;2022-09-24T08:18:42;16.40;99.90
27795;DHT22;15176;50.844;4.412;2022-09-24T08:21:09;16.70;99.90
27795;DHT22;15176;50.844;4.412;2022-09-24T08:23:36;16.80;99.90
27795;DHT22;15176;50.844;4.412;2022-09-24T08:26:03;16.90;99.90
27795;DHT22;15176;50.844;4.412;2022-09-24T08:28:30;17.00;99.90
27795;DHT22;15176;50.844;4.412;2022-09-24T08:31:00;16.70;99.90
27795;DHT22;15176;50.844;4.412;2022-09-24T08:33:27;16.70;99.90
27795;DHT22;15176;50.844;4.412;2022-09-24T08:35:58;16.50;99.90
27795;DHT22;15176;50.844;4.412;2022-09-24T08:38:24;16.30;99.90
27795;DHT22;15176;50.844;4.412;2022-09-24T08:41:08;16.20;99.90
27795;DHT22;15176;50.844;4.412;2022-09-24T08:46:39;16.30;99.90
27795;DHT22;15176;50.844;4.412;2022-09-24T08:49:39;16.10;99.90
27795;DHT22;15176;50.844;4.412;2022-09-24T08:54:52;16.20;99.90
27795;DHT22;15176;50.844;4.412;2022-09-24T08:57:19;16.40;99.90
27795;DHT22;15176;50.844;4.412;2022-09-24T08:59:50;16.30;99.90
27795;DHT22;15176;50.844;4.412;2022-09-24T09:02:56;16.10;99.90
27795;DHT22;15176;50.844;4.412;2022-09-24T09:08:28;16.40;99.90
27795;DHT22;15176;50.844;4.412;2022-09-24T09:11:01;16.10;99.90
27795;DHT22;15176;50.844;4.412;2022-09-24T09:14:13;16.20;99.90
27795;DHT22;15176;50.844;4.412;2022-09-24T09:19:11;16.00;99.90
27795;DHT22;15176;50.844;4.412;2022-09-24T09:21:40;15.90;99.90
27795;DHT22;15176;50.844;4.412;2022-09-24T09:24:19;16.10;99.90
27795;DHT22;15176;50.844;4.412;2022-09-24T09:26:50;15.80;99.90
27795;DHT22;15176;50.844;4.412;2022-09-24T09:29:23;16.00;99.90
27795;DHT22;15176;50.844;4.412;2022-09-24T09:35:05;16.20;99.90
27795;DHT22;15176;50.844;4.412;2022-09-24T09:40:40;16.60;99.90
27795;DHT22;15176;50.844;4.412;2022-09-24T09:43:10;16.60;99.90
27795;DHT22;15176;50.844;4.412;2022-09-24T09:45:50;16.20;99.90
27795;DHT22;15176;50.844;4.412;2022-09-24T09:48:21;16.20;99.90
27795;DHT22;15176;50.844;4.412;2022-09-24T09:50:57;15.90;99.90
27795;DHT22;15176;50.844;4.412;2022-09-24T09:53:28;15.90;99.90
27795;DHT22;15176;50.844;4.412;2022-09-24T09:55:58;16.30;99.90
27795;DHT22;15176;50.844;4.412;2022-09-24T09:58:31;16.10;99.90
27795;DHT22;15176;50.844;4.412;2022-09-24T10:03:34;16.50;99.90
27795;DHT22;15176;50.844;4.412;2022-09-24T10:06:09;16.80;99.90
27795;DHT22;15176;50.844;4.412;2022-09-24T10:08:36;16.90;99.90
27795;DHT22;15176;50.844;4.412;2022-09-24T10:11:02;16.90;99.90
27795;DHT22;15176;50.844;4.412;2022-09-24T10:13:29;16.90;99.90
27795;DHT22;15176;50.844;4.412;2022-09-24T10:16:00;17.00;99.90
27795;DHT22;15176;50.844;4.412;2022-09-24T10:18:33;16.50;99.90
27795;DHT22;15176;50.844;4.412;2022-09-24T10:21:03;16.40;99.90
27795;DHT22;15176;50.844;4.412;2022-09-24T10:23:38;16.60;99.90
27795;DHT22;15176;50.844;4.412;2022-09-24T10:26:05;16.70;99.90
27795;DHT22;15176;50.844;4.412;2022-09-24T10:28:34;16.60;99.90
27795;DHT22;15176;50.844;4.412;2022-09-24T10:31:22;16.70;99.90
27795;DHT22;15176;50.844;4.412;2022-09-24T10:33:53;16.90;99.90
27795;DHT22;15176;50.844;4.412;2022-09-24T10:36:23;16.90;99.90
27795;DHT22;15176;50.844;4.412;2022-09-24T10:41:32;16.40;99.90
27795;DHT22;15176;50.844;4.412;2022-09-24T10:44:02;16.00;99.90
27795;DHT22;15176;50.844;4.412;2022-09-24T10:49:33;15.80;99.90
27795;DHT22;15176;50.844;4.412;2022-09-24T10:58:00;15.90;99.90
27795;DHT22;15176;50.844;4.412;2022-09-24T11:00:40;16.30;99.90
27795;DHT22;15176;50.844;4.412;2022-09-24T11:11:50;16.60;99.90
27795;DHT22;15176;50.844;4.412;2022-09-24T11:25:19;17.00;99.90
27795;DHT22;15176;50.844;4.412;2022-09-24T11:36:27;16.30;99.90
27795;DHT22;15176;50.844;4.412;2022-09-24T11:47:46;16.80;99.90
27795;DHT22;15176;50.844;4.412;2022-09-24T11:50:47;16.80;99.90
27795;DHT22;15176;50.844;4.412;2022-09-24T11:55:51;16.60;99.90
27795;DHT22;15176;50.844;4.412;2022-09-24T11:58:36;16.70;99.90
27795;DHT22;15176;50.844;4.412;2022-09-24T12:01:27;16.90;99.90
27795;DHT22;15176;50.844;4.412;2022-09-24T12:06:39;16.30;99.90
27795;DHT22;15176;50.844;4.412;2022-09-24T12:09:36;16.40;99.90
27795;DHT22;15176;50.844;4.412;2022-09-24T12:12:07;16.30;99.90
27795;DHT22;15176;50.844;4.412;2022-09-24T12:18:10;16.30;99.90
27795;DHT22;15176;50.844;4.412;2022-09-24T12:21:09;16.20;99.90
27795;DHT22;15176;50.844;4.412;2022-09-24T12:23:38;16.70;99.90
27795;DHT22;15176;50.844;4.412;2022-09-24T12:26:09;16.40;99.90
27795;DHT22;15176;50.844;4.412;2022-09-24T12:29:00;16.30;99.90
27795;DHT22;15176;50.844;4.412;2022-09-24T12:31:59;16.60;99.90
27795;DHT22;15176;50.844;4.412;2022-09-24T12:37:19;16.70;99.90
27795;DHT22;15176;50.844;4.412;2022-09-24T12:42:52;16.70;99.90
27795;DHT22;15176;50.844;4.412;2022-09-24T12:45:20;16.80;99.90
27795;DHT22;15176;50.844;4.412;2022-09-24T12:47:58;16.90;99.90
27795;DHT22;15176;50.844;4.412;2022-09-24T12:50:29;16.70;99.90
27795;DHT22;15176;50.844;4.412;2022-09-24T12:52:56;16.80;99.90
27795;DHT22;15176;50.844;4.412;2022-09-24T12:55:30;16.70;99.90
27795;DHT22;15176;50.844;4.412;2022-09-24T12:58:02;16.70;99.90
27795;DHT22;15176;50.844;4.412;2022-09-24T13:00:40;16.50;99.90
27795;DHT22;15176;50.844;4.412;2022-09-24T13:03:34;16.70;99.90
27795;DHT22;15176;50.844;4.412;2022-09-24T13:06:01;17.10;99.90
27795;DHT22;15176;50.844;4.412;2022-09-24T13:08:38;17.10;99.90
27795;DHT22;15176;50.844;4.412;2022-09-24T13:11:33;17.00;99.90
27795;DHT22;15176;50.844;4.412;2022-09-24T13:14:19;16.80;99.90
27795;DHT22;15176;50.844;4.412;2022-09-24T13:16:49;16.80;99.90
27795;DHT22;15176;50.844;4.412;2022-09-24T13:19:45;16.60;99.90
27795;DHT22;15176;50.844;4.412;2022-09-24T13:24:52;17.20;99.90
27795;DHT22;15176;50.844;4.412;2022-09-24T13:27:40;17.30;99.90
27795;DHT22;15176;50.844;4.412;2022-09-24T13:30:45;16.90;99.90
27795;DHT22;15176;50.844;4.412;2022-09-24T13:33:19;16.50;99.90
27795;DHT22;15176;50.844;4.412;2022-09-24T13:38:53;16.60;99.90
27795;DHT22;15176;50.844;4.412;2022-09-24T13:44:04;16.80;99.90
27795;DHT22;15176;50.844;4.412;2022-09-24T13:46:40;16.90;99.90
27795;DHT22;15176;50.844;4.412;2022-09-24T13:49:12;16.90;99.90
27795;DHT22;15176;50.844;4.412;2022-09-24T13:51:41;16.70;99.90
27795;DHT22;15176;50.844;4.412;2022-09-24T13:56:56;17.00;99.90
27795;DHT22;15176;50.844;4.412;2022-09-24T13:59:23;17.10;99.90
27795;DHT22;15176;50.844;4.412;2022-09-24T14:01:48;17.00;99.90
27795;DHT22;15176;50.844;4.412;2022-09-24T14:04:19;17.10;99.90
27795;DHT22;15176;50.844;4.412;2022-09-24T14:06:55;17.10;99.90
27795;DHT22;15176;50.844;4.412;2022-09-24T14:09:32;17.20;99.90
27795;DHT22;15176;50.844;4.412;2022-09-24T14:12:01;17.30;99.90
27795;DHT22;15176;50.844;4.412;2022-09-24T14:14:29;17.30;99.90
27795;DHT22;15176;50.844;4.412;2022-09-24T14:17:10;17.30;99.90
27795;DHT22;15176;50.844;4.412;2022-09-24T14:19:37;17.40;99.90
27795;DHT22;15176;50.844;4.412;2022-09-24T14:22:05;17.60;99.90
27795;DHT22;15176;50.844;4.412;2022-09-24T14:24:39;17.50;99.90
27795;DHT22;15176;50.844;4.412;2022-09-24T14:27:11;17.50;99.90
27795;DHT22;15176;50.844;4.412;2022-09-24T14:29:44;17.30;99.90
27795;DHT22;15176;50.844;4.412;2022-09-24T14:32:37;17.20;99.90
27795;DHT22;15176;50.844;4.412;2022-09-24T14:35:16;17.30;99.90
27795;DHT22;15176;50.844;4.412;2022-09-24T14:38:00;17.30;99.90
27795;DHT22;15176;50.844;4.412;2022-09-24T14:40:29;17.40;99.90
27795;DHT22;15176;50.844;4.412;2022-09-24T14:42:58;17.50;99.90
27795;DHT22;15176;50.844;4.412;2022-09-24T14:45:36;17.50;99.90
27795;DHT22;15176;50.844;4.412;2022-09-24T14:48:17;17.50;99.90
27795;DHT22;15176;50.844;4.412;2022-09-24T14:50:44;17.50;99.90
27795;DHT22;15176;50.844;4.412;2022-09-24T14:53:20;17.40;99.90
27795;DHT22;15176;50.844;4.412;2022-09-24T14:55:46;17.50;99.90
27795;DHT22;15176;50.844;4.412;2022-09-24T15:00:55;17.50;99.90
27795;DHT22;15176;50.844;4.412;2022-09-24T15:03:41;17.40;99.90
27795;DHT22;15176;50.844;4.412;2022-09-24T15:06:31;17.60;99.90
27795;DHT22;15176;50.844;4.412;2022-09-24T15:11:33;17.60;99.90
27795;DHT22;15176;50.844;4.412;2022-09-24T15:16:40;17.60;99.90
27795;DHT22;15176;50.844;4.412;2022-09-24T15:21:32;17.30;99.90
27795;DHT22;15176;50.844;4.412;2022-09-24T15:23:58;17.40;99.90
27795;DHT22;15176;50.844;4.412;2022-09-24T15:26:28;17.20;99.90
27795;DHT22;15176;50.844;4.412;2022-09-24T15:28:56;17.20;99.90
27795;DHT22;15176;50.844;4.412;2022-09-24T15:31:22;17.20;99.90
27795;DHT22;15176;50.844;4.412;2022-09-24T15:33:48;17.20;99.90
27795;DHT22;15176;50.844;4.412;2022-09-24T15:36:14;17.10;99.90
27795;DHT22;15176;50.844;4.412;2022-09-24T15:38:44;17.00;99.90
27795;DHT22;15176;50.844;4.412;2022-09-24T15:41:10;17.10;99.90
27795;DHT22;15176;50.844;4.412;2022-09-24T15:43:35;17.30;99.90
27795;DHT22;15176;50.844;4.412;2022-09-24T15:46:01;17.30;99.90
27795;DHT22;15176;50.844;4.412;2022-09-24T15:48:27;17.30;99.90
27795;DHT22;15176;50.844;4.412;2022-09-24T15:50:53;17.20;99.90
27795;DHT22;15176;50.844;4.412;2022-09-24T15:53:24;17.30;99.90
27795;DHT22;15176;50.844;4.412;2022-09-24T15:56:00;17.50;99.90
27795;DHT22;15176;50.844;4.412;2022-09-24T15:58:27;17.50;99.90
27795;DHT22;15176;50.844;4.412;2022-09-24T16:00:53;17.10;99.90
27795;DHT22;15176;50.844;4.412;2022-09-24T16:03:25;17.20;99.90
27795;DHT22;15176;50.844;4.412;2022-09-24T16:05:52;17.20;99.90
27795;DHT22;15176;50.844;4.412;2022-09-24T16:08:18;17.20;99.90
27795;DHT22;15176;50.844;4.412;2022-09-24T16:10:44;17.40;99.90
27795;DHT22;15176;50.844;4.412;2022-09-24T16:13:11;17.30;99.90
27795;DHT22;15176;50.844;4.412;2022-09-24T16:15:38;17.20;99.90
27795;DHT22;15176;50.844;4.412;2022-09-24T16:18:04;17.20;99.90
27795;DHT22;15176;50.844;4.412;2022-09-24T16:20:30;17.10;99.90
27795;DHT22;15176;50.844;4.412;2022-09-24T16:22:56;17.10;99.90
27795;DHT22;15176;50.844;4.412;2022-09-24T16:25:22;17.00;99.90
27795;DHT22;15176;50.844;4.412;2022-09-24T16:27:48;17.20;99.90
27795;DHT22;15176;50.844;4.412;2022-09-24T16:30:15;17.30;99.90
27795;DHT22;15176;50.844;4.412;2022-09-24T16:32:41;17.30;99.90
27795;DHT22;15176;50.844;4.412;2022-09-24T16:35:07;17.20;99.90
27795;DHT22;15176;50.844;4.412;2022-09-24T16:37:36;17.20;99.90
27795;DHT22;15176;50.844;4.412;2022-09-24T16:40:02;17.00;99.90
27795;DHT22;15176;50.844;4.412;2022-09-24T16:42:27;17.00;99.90
27795;DHT22;15176;50.844;4.412;2022-09-24T16:44:53;17.00;99.90
27795;DHT22;15176;50.844;4.412;2022-09-24T16:47:19;17.10;99.90
27795;DHT22;15176;50.844;4.412;2022-09-24T16:49:45;16.80;99.90
27795;DHT22;15176;50.844;4.412;2022-09-24T16:52:11;16.80;99.90
27795;DHT22;15176;50.844;4.412;2022-09-24T16:54:37;16.90;99.90
27795;DHT22;15176;50.844;4.412;2022-09-24T16:57:02;16.90;99.90
27795;DHT22;15176;50.844;4.412;2022-09-24T16:59:31;16.30;99.90
27795;DHT22;15176;50.844;4.412;2022-09-24T17:01:56;16.30;99.90
27795;DHT22;15176;50.844;4.412;2022-09-24T17:04:24;16.30;99.90
27795;DHT22;15176;50.844;4.412;2022-09-24T17:06:55;16.30;99.90
27795;DHT22;15176;50.844;4.412;2022-09-24T17:09:22;16.30;99.90
27795;DHT22;15176;50.844;4.412;2022-09-24T17:12:06;16.10;99.90
27795;DHT22;15176;50.844;4.412;2022-09-24T17:14:32;16.10;99.90
27795;DHT22;15176;50.844;4.412;2022-09-24T17:16:57;16.10;99.90
27795;DHT22;15176;50.844;4.412;2022-09-24T17:19:23;16.00;99.90
27795;DHT22;15176;50.844;4.412;2022-09-24T17:21:49;16.10;99.90
27795;DHT22;15176;50.844;4.412;2022-09-24T17:24:16;16.10;99.90
27795;DHT22;15176;50.844;4.412;2022-09-24T17:26:42;16.20;99.90
27795;DHT22;15176;50.844;4.412;2022-09-24T17:29:10;16.30;99.90
27795;DHT22;15176;50.844;4.412;2022-09-24T17:31:36;16.30;99.90
27795;DHT22;15176;50.844;4.412;2022-09-24T17:34:07;16.30;99.90
27795;DHT22;15176;50.844;4.412;2022-09-24T17:36:37;16.30;99.90
27795;DHT22;15176;50.844;4.412;2022-09-24T17:39:04;16.20;99.90
27795;DHT22;15176;50.844;4.412;2022-09-24T17:41:30;16.20;99.90
27795;DHT22;15176;50.844;4.412;2022-09-24T17:43:56;16.30;99.90
27795;DHT22;15176;50.844;4.412;2022-09-24T17:46:30;16.20;99.90
27795;DHT22;15176;50.844;4.412;2022-09-24T17:48:58;16.40;99.90